Página principal
METAR-TAF:

METAR-TAF

Aeroportos :

Aeroporto Frédéric Chopin de Varsóvia

Varsóvia, Polónia

latitude: 52-10N, longitude: 020-58E, altura: 106 m

Observação actual do tempo

O boletim foi feito há 20 minutos, às 09:30 UTC
Vento 10 kt de es-sudeste
Temperatura 23°C
Humidade 65%
Pressão 1023 hPa
Visibilidade 10 km ou mais
sem nuvens abaixo de 1500 metros e sem cumulonimbus

METAR: EPWA 270930Z 11010KT CAVOK 23/16 Q1023 NOSIG

Hora: 11:50 (09:50 UTC)

Previsão

O boletim foi feito há 1 hora e 20 minutos, às 08:30 UTC
Previsão válida de 27 às 09 UTC a 28 às 09 UTC
Vento 14 kt de es-sudeste
Visibilidade 10 km ou mais
sem nuvens abaixo de 1500 metros e sem cumulonimbus
Tornando-se
de 27 às 18 UTC a 27 às 20 UTC
Vento 4 kt de este

TAF: EPWA 270830Z 2709/2809 12014KT CAVOK BECMG 2718/2720 09004KT

Observações e previsões do tempo de mais de 4000 aeroportos (mensagens METAR e TAF).

As estações disponíveis são os pontos amarelos e vermelhos sobre o mapa.

Mova o rato sobre o mapa para ver o nome da estação.

Depois clique no ponto para visualizar as observações e previsões meteorológicas.

Para alterar o mapa : clique nos botões verdes com uma cruz preta para aumentar o zoom; no botão verde com uma pitada de zoom; ou nas setas verdes para mapas adjacentes.


METAR-TAF: